createdAt,value
2023-04-08T00:01:37.196Z,4.80
2023-04-08T00:04:04.117Z,4.80
2023-04-08T00:06:31.606Z,4.80
2023-04-08T00:08:58.264Z,4.80
2023-04-08T00:11:24.920Z,4.80
2023-04-08T00:13:51.581Z,4.80
2023-04-08T00:16:18.302Z,4.90
2023-04-08T00:18:44.965Z,4.80
2023-04-08T00:21:11.751Z,4.90
2023-04-08T00:23:38.398Z,5.00
2023-04-08T00:26:05.042Z,5.00
2023-04-08T00:28:32.136Z,5.00
2023-04-08T00:30:58.935Z,5.00
2023-04-08T00:33:25.831Z,5.00
2023-04-08T00:35:52.656Z,5.00
2023-04-08T00:38:19.400Z,5.10
2023-04-08T00:40:46.199Z,5.10
2023-04-08T00:43:12.952Z,5.10
2023-04-08T00:45:39.668Z,5.10
2023-04-08T00:48:06.724Z,5.10
2023-04-08T00:50:33.553Z,5.20
2023-04-08T00:53:00.447Z,5.20
2023-04-08T00:55:27.083Z,5.20
2023-04-08T00:57:54.030Z,5.20
2023-04-08T01:00:20.958Z,5.20
2023-04-08T01:03:19.971Z,5.20
2023-04-08T01:06:07.210Z,5.30
2023-04-08T01:08:37.346Z,5.30
2023-04-08T01:11:07.132Z,5.30
2023-04-08T01:13:39.580Z,5.20
2023-04-08T01:16:09.720Z,5.20
2023-04-08T01:18:37.168Z,5.20
2023-04-08T01:21:06.363Z,5.20
2023-04-08T01:23:38.028Z,5.20
2023-04-08T01:26:05.009Z,5.20
2023-04-08T01:28:33.472Z,5.20
2023-04-08T01:31:02.125Z,5.20
2023-04-08T01:33:31.410Z,5.20
2023-04-08T01:36:00.127Z,5.20
2023-04-08T01:38:28.309Z,5.20
2023-04-08T01:40:57.102Z,5.20
2023-04-08T01:43:25.769Z,5.20
2023-04-08T01:45:58.052Z,5.20
2023-04-08T01:48:25.877Z,5.20
2023-04-08T01:50:53.913Z,5.20
2023-04-08T01:53:20.710Z,5.20
2023-04-08T01:55:52.030Z,5.20
2023-04-08T01:58:21.760Z,5.20
2023-04-08T02:03:57.341Z,5.10
2023-04-08T02:06:26.602Z,5.10
2023-04-08T02:08:54.227Z,5.10
2023-04-08T02:11:21.533Z,5.10
2023-04-08T02:13:49.250Z,5.10
2023-04-08T02:16:23.784Z,5.10
2023-04-08T02:18:58.315Z,5.10
2023-04-08T02:21:42.654Z,5.20
2023-04-08T02:24:13.438Z,5.20
2023-04-08T02:26:43.801Z,5.20
2023-04-08T02:29:15.777Z,5.20
2023-04-08T02:31:43.914Z,5.20
2023-04-08T02:34:11.905Z,5.20
2023-04-08T02:36:41.000Z,5.10
2023-04-08T02:39:07.834Z,5.10
2023-04-08T02:41:34.797Z,5.20
2023-04-08T02:44:01.515Z,5.20
2023-04-08T02:46:29.975Z,5.20
2023-04-08T02:48:56.630Z,5.20
2023-04-08T02:51:23.339Z,5.20
2023-04-08T02:53:50.213Z,5.20
2023-04-08T02:56:17.082Z,5.20
2023-04-08T02:58:43.819Z,5.20
2023-04-08T03:01:10.651Z,5.20
2023-04-08T03:03:37.478Z,5.20
2023-04-08T03:06:04.246Z,5.20
2023-04-08T03:08:30.909Z,5.20
2023-04-08T03:10:57.615Z,5.20
2023-04-08T03:13:24.347Z,5.20
2023-04-08T03:15:51.128Z,5.20
2023-04-08T03:18:17.938Z,5.20
2023-04-08T03:20:44.684Z,5.20
2023-04-08T03:23:11.343Z,5.20
2023-04-08T03:25:38.117Z,5.20
2023-04-08T03:28:04.916Z,5.20
2023-04-08T03:30:31.941Z,5.20
2023-04-08T03:32:58.677Z,5.20
2023-04-08T03:35:25.792Z,5.20
2023-04-08T03:37:52.635Z,5.20
2023-04-08T03:40:19.587Z,5.20
2023-04-08T03:42:46.431Z,5.20
2023-04-08T03:45:13.079Z,5.20
2023-04-08T03:47:39.811Z,5.20
2023-04-08T03:50:07.092Z,5.20
2023-04-08T03:52:33.712Z,5.20
2023-04-08T03:55:00.505Z,5.20
2023-04-08T03:57:27.148Z,5.20
2023-04-08T03:59:54.087Z,5.20
2023-04-08T04:02:21.089Z,5.30
2023-04-08T04:04:48.024Z,5.30
2023-04-08T04:07:14.711Z,5.20
2023-04-08T04:09:41.388Z,5.20
2023-04-08T04:12:08.138Z,5.20
2023-04-08T04:14:34.824Z,5.20
2023-04-08T04:17:01.521Z,5.20
2023-04-08T04:19:32.170Z,5.20
2023-04-08T04:21:58.889Z,5.20
2023-04-08T04:24:25.783Z,5.20
2023-04-08T04:26:52.488Z,5.20
2023-04-08T04:29:19.270Z,5.20
2023-04-08T04:31:46.344Z,5.20
2023-04-08T04:34:13.397Z,5.20
2023-04-08T04:36:40.288Z,5.20
2023-04-08T04:39:07.096Z,5.30
2023-04-08T04:41:35.300Z,5.30
2023-04-08T04:44:02.047Z,5.30
2023-04-08T04:46:28.949Z,5.30
2023-04-08T04:48:55.740Z,5.30
2023-04-08T04:51:22.471Z,5.30
2023-04-08T04:53:49.999Z,5.30
2023-04-08T04:56:16.649Z,5.30
2023-04-08T04:58:43.342Z,5.30
2023-04-08T05:01:10.226Z,5.40
2023-04-08T05:03:36.933Z,5.40
2023-04-08T05:06:03.738Z,5.40
2023-04-08T05:08:30.548Z,5.40
2023-04-08T05:10:59.519Z,5.40
2023-04-08T05:13:26.366Z,5.50
2023-04-08T05:15:53.062Z,5.50
2023-04-08T05:18:19.853Z,5.50
2023-04-08T05:20:46.849Z,5.40
2023-04-08T05:23:13.527Z,5.40
2023-04-08T05:25:40.326Z,5.40
2023-04-08T05:28:07.172Z,5.40
2023-04-08T05:30:33.902Z,5.40
2023-04-08T05:33:00.923Z,5.40
2023-04-08T05:35:28.665Z,5.40
2023-04-08T05:37:56.126Z,5.50
2023-04-08T05:40:22.968Z,5.50
2023-04-08T05:42:49.770Z,5.50
2023-04-08T05:45:16.647Z,5.50
2023-04-08T05:47:43.533Z,5.60
2023-04-08T05:50:11.390Z,5.50
2023-04-08T05:52:41.751Z,5.50
2023-04-08T05:55:08.894Z,5.50
2023-04-08T05:57:35.606Z,5.50
2023-04-08T06:00:02.461Z,5.50
2023-04-08T06:02:33.237Z,5.60
2023-04-08T06:05:00.239Z,5.60
2023-04-08T06:07:27.099Z,5.60
2023-04-08T06:09:53.865Z,5.60
2023-04-08T06:12:20.692Z,5.70
2023-04-08T06:14:47.518Z,5.60
2023-04-08T06:17:14.253Z,5.70
2023-04-08T06:19:40.998Z,5.70
2023-04-08T06:22:07.749Z,5.70
2023-04-08T06:24:34.925Z,5.70
2023-04-08T06:27:01.674Z,5.70
2023-04-08T06:29:29.907Z,5.60
2023-04-08T06:31:56.716Z,5.60
2023-04-08T06:34:23.491Z,5.60
2023-04-08T06:36:50.336Z,5.60
2023-04-08T06:39:17.151Z,5.50
2023-04-08T06:41:43.884Z,5.50
2023-04-08T06:44:30.645Z,5.40
2023-04-08T06:46:57.316Z,5.40
2023-04-08T06:49:24.041Z,5.50
2023-04-08T06:51:50.931Z,5.60
2023-04-08T06:54:17.609Z,5.70
2023-04-08T06:56:44.315Z,5.80
2023-04-08T06:59:11.086Z,5.80
2023-04-08T07:01:37.984Z,5.90
2023-04-08T07:04:04.790Z,6.00
2023-04-08T07:06:31.647Z,6.10
2023-04-08T07:08:58.379Z,6.10
2023-04-08T07:11:25.794Z,6.10
2023-04-08T07:13:52.613Z,6.20
2023-04-08T07:16:19.479Z,6.20
2023-04-08T07:18:47.565Z,6.20
2023-04-08T07:21:14.360Z,6.30
2023-04-08T07:23:41.209Z,6.30
2023-04-08T07:26:08.006Z,6.30
2023-04-08T07:28:34.699Z,6.40
2023-04-08T07:31:16.033Z,6.40
2023-04-08T07:33:43.553Z,6.40
2023-04-08T07:36:11.614Z,6.40
2023-04-08T07:38:39.252Z,6.30
2023-04-08T07:41:06.008Z,6.40
2023-04-08T07:43:34.480Z,6.40
2023-04-08T07:46:05.055Z,6.40
2023-04-08T07:48:32.525Z,6.40
2023-04-08T07:51:10.971Z,6.40
2023-04-08T07:53:40.311Z,6.40
2023-04-08T07:56:14.700Z,6.50
2023-04-08T07:58:42.256Z,6.50
2023-04-08T08:01:22.960Z,6.60
2023-04-08T08:03:51.692Z,6.60
2023-04-08T08:06:19.185Z,6.60
2023-04-08T08:08:46.244Z,6.60
2023-04-08T08:11:13.189Z,6.70
2023-04-08T08:13:40.023Z,6.70
2023-04-08T08:16:09.301Z,6.70
2023-04-08T08:18:36.874Z,6.70
2023-04-08T08:21:04.061Z,6.80
2023-04-08T08:23:30.953Z,6.80
2023-04-08T08:26:09.932Z,6.80
2023-04-08T08:28:38.602Z,6.80
2023-04-08T08:31:06.152Z,6.80
2023-04-08T08:33:33.333Z,6.70
2023-04-08T08:36:00.288Z,6.70
2023-04-08T08:38:27.417Z,6.80
2023-04-08T08:40:56.322Z,6.80
2023-04-08T08:43:27.214Z,6.80
2023-04-08T08:45:55.285Z,6.80
2023-04-08T08:48:22.034Z,6.90
2023-04-08T08:50:48.907Z,7.00
2023-04-08T08:53:16.158Z,7.00
2023-04-08T08:58:12.731Z,6.90
2023-04-08T09:00:42.406Z,6.80
2023-04-08T09:03:20.220Z,6.80
2023-04-08T09:06:01.096Z,6.80
2023-04-08T09:08:28.922Z,6.80
2023-04-08T09:10:56.751Z,6.80
2023-04-08T09:13:24.801Z,6.80
2023-04-08T09:16:05.747Z,6.80
2023-04-08T09:18:33.547Z,6.90
2023-04-08T09:21:02.005Z,6.90
2023-04-08T09:23:41.017Z,7.00
2023-04-08T09:26:15.711Z,7.00
2023-04-08T09:28:43.951Z,7.00
2023-04-08T09:31:25.009Z,7.00
2023-04-08T09:33:54.785Z,6.90
2023-04-08T09:36:21.771Z,6.90
2023-04-08T09:38:49.038Z,6.90
2023-04-08T09:41:17.774Z,6.90
2023-04-08T09:43:50.288Z,7.00
2023-04-08T09:46:21.688Z,7.00
2023-04-08T09:49:06.490Z,7.00
2023-04-08T09:51:40.441Z,7.10
2023-04-08T09:54:15.704Z,7.10
2023-04-08T09:56:51.317Z,7.10
2023-04-08T09:59:21.570Z,7.00
2023-04-08T10:01:54.530Z,7.10
2023-04-08T10:04:23.323Z,7.00
2023-04-08T10:06:57.177Z,7.10
2023-04-08T10:09:24.266Z,7.20
2023-04-08T10:11:51.498Z,7.20
2023-04-08T10:14:18.300Z,7.30
2023-04-08T10:16:45.140Z,7.30
2023-04-08T10:19:38.927Z,7.30
2023-04-08T10:22:28.435Z,7.40
2023-04-08T10:25:17.263Z,7.40
2023-04-08T10:27:45.276Z,7.40
2023-04-08T10:30:33.438Z,7.40
2023-04-08T10:33:00.911Z,7.30
2023-04-08T10:35:32.804Z,7.20
2023-04-08T10:38:00.398Z,7.20
2023-04-08T10:40:27.448Z,7.20
2023-04-08T10:42:57.710Z,7.20
2023-04-08T10:45:24.832Z,7.20
2023-04-08T10:47:52.207Z,7.30
2023-04-08T10:50:21.270Z,7.40
2023-04-08T10:52:52.179Z,7.40
2023-04-08T10:55:26.690Z,7.40
2023-04-08T10:58:04.947Z,7.50
2023-04-08T11:00:36.980Z,7.50
2023-04-08T11:03:06.085Z,7.60
2023-04-08T11:05:33.725Z,7.50
2023-04-08T11:08:00.960Z,7.60
2023-04-08T11:10:29.072Z,7.50
2023-04-08T11:12:56.848Z,7.60
2023-04-08T11:15:25.748Z,7.60
2023-04-08T11:17:54.152Z,7.60
2023-04-08T11:20:22.059Z,7.60
2023-04-08T11:22:50.390Z,7.60
2023-04-08T11:25:17.340Z,7.70
2023-04-08T11:27:45.117Z,7.70
2023-04-08T11:30:12.518Z,7.70
2023-04-08T11:32:40.029Z,7.80
2023-04-08T11:35:07.860Z,7.80
2023-04-08T11:37:41.966Z,7.80
2023-04-08T11:40:10.442Z,7.90
2023-04-08T11:42:38.063Z,7.90
2023-04-08T11:45:13.157Z,8.00
2023-04-08T11:47:40.568Z,8.00
2023-04-08T11:50:08.026Z,8.10
2023-04-08T11:52:41.919Z,8.10
2023-04-08T11:55:11.368Z,8.20
2023-04-08T11:57:38.884Z,8.20
2023-04-08T12:00:07.453Z,8.30
2023-04-08T12:02:37.589Z,8.20
2023-04-08T12:05:04.641Z,8.30
2023-04-08T12:07:31.458Z,8.40
2023-04-08T12:09:58.636Z,8.40
2023-04-08T12:12:25.464Z,8.30
2023-04-08T12:14:52.287Z,8.40
2023-04-08T12:17:19.169Z,8.40
2023-04-08T12:19:46.053Z,8.40
2023-04-08T12:22:12.765Z,8.40
2023-04-08T12:24:39.517Z,8.50
2023-04-08T12:27:06.517Z,8.60
2023-04-08T12:29:33.317Z,8.60
2023-04-08T12:32:00.339Z,8.50
2023-04-08T12:34:27.177Z,8.50
2023-04-08T12:36:55.420Z,8.50
2023-04-08T12:39:22.351Z,8.40
2023-04-08T12:41:49.128Z,8.50
2023-04-08T12:44:16.144Z,8.50
2023-04-08T12:46:43.084Z,8.50
2023-04-08T12:49:09.973Z,8.50
2023-04-08T12:51:36.818Z,8.50
2023-04-08T12:54:04.075Z,8.60
2023-04-08T12:56:32.181Z,8.60
2023-04-08T12:59:00.050Z,8.60
2023-04-08T13:01:27.257Z,8.60
2023-04-08T13:03:54.484Z,8.50
2023-04-08T13:06:21.486Z,8.60
2023-04-08T13:08:48.329Z,8.60
2023-04-08T13:11:15.172Z,8.50
2023-04-08T13:13:42.023Z,8.50
2023-04-08T13:16:09.508Z,8.60
2023-04-08T13:18:36.637Z,8.60
2023-04-08T13:21:03.497Z,8.60
2023-04-08T13:23:30.325Z,8.70
2023-04-08T13:25:57.053Z,8.70
2023-04-08T13:28:23.847Z,8.80
2023-04-08T13:30:51.202Z,8.80
2023-04-08T13:33:18.027Z,8.90
2023-04-08T13:35:44.743Z,8.90
2023-04-08T13:38:11.532Z,9.00
2023-04-08T13:40:38.556Z,9.00
2023-04-08T13:43:05.687Z,9.10
2023-04-08T13:45:32.445Z,9.20
2023-04-08T13:48:00.002Z,9.20
2023-04-08T13:50:28.052Z,9.30
2023-04-08T13:52:54.830Z,9.20
2023-04-08T13:55:22.244Z,9.20
2023-04-08T13:57:49.127Z,9.20
2023-04-08T14:00:16.014Z,9.20
2023-04-08T14:02:42.924Z,9.20
2023-04-08T14:05:09.983Z,9.10
2023-04-08T14:07:36.715Z,9.20
2023-04-08T14:10:03.623Z,9.20
2023-04-08T14:12:30.380Z,9.10
2023-04-08T14:14:57.147Z,9.20
2023-04-08T14:17:24.037Z,9.20
2023-04-08T14:19:51.114Z,9.20
2023-04-08T14:22:19.070Z,9.10
2023-04-08T14:24:46.043Z,9.00
2023-04-08T14:27:12.803Z,9.00
2023-04-08T14:29:39.643Z,8.90
2023-04-08T14:32:06.656Z,9.00
2023-04-08T14:34:33.342Z,9.00
2023-04-08T14:37:00.313Z,9.00
2023-04-08T14:39:27.105Z,9.00
2023-04-08T14:41:53.943Z,9.00
2023-04-08T14:44:20.684Z,9.00
2023-04-08T14:46:48.056Z,9.00
2023-04-08T14:49:14.797Z,9.00
2023-04-08T14:51:41.499Z,9.00
2023-04-08T14:54:08.261Z,8.90
2023-04-08T14:56:35.036Z,8.90
2023-04-08T14:59:01.735Z,9.00
2023-04-08T15:01:31.314Z,9.00
2023-04-08T15:03:58.211Z,9.00
2023-04-08T15:06:26.512Z,9.10
2023-04-08T15:08:53.722Z,9.20
2023-04-08T15:11:24.858Z,9.20
2023-04-08T15:13:51.808Z,9.30
2023-04-08T15:16:18.840Z,9.30
2023-04-08T15:18:45.676Z,9.30
2023-04-08T15:21:12.499Z,9.30
2023-04-08T15:23:42.023Z,9.30
2023-04-08T15:26:09.704Z,9.20
2023-04-08T15:28:38.030Z,9.10
2023-04-08T15:31:07.954Z,9.10
2023-04-08T15:33:34.880Z,9.00
2023-04-08T15:36:04.549Z,9.00
2023-04-08T15:38:33.741Z,9.10
2023-04-08T15:41:00.637Z,9.10
2023-04-08T15:43:27.411Z,9.20
2023-04-08T15:45:54.276Z,9.20
2023-04-08T15:48:21.356Z,9.20
2023-04-08T15:50:48.155Z,9.30
2023-04-08T15:53:15.162Z,9.30
2023-04-08T15:55:42.175Z,9.20
2023-04-08T15:58:08.954Z,9.30
2023-04-08T16:00:35.733Z,9.30
2023-04-08T16:03:02.756Z,9.30
2023-04-08T16:05:31.123Z,9.30
2023-04-08T16:07:58.157Z,9.30
2023-04-08T16:10:24.906Z,9.30
2023-04-08T16:12:51.720Z,9.30
2023-04-08T16:15:18.708Z,9.30
2023-04-08T16:17:53.394Z,9.30
2023-04-08T16:20:21.082Z,9.20
2023-04-08T16:22:47.879Z,9.20
2023-04-08T16:25:15.037Z,9.30
2023-04-08T16:27:41.831Z,9.30
2023-04-08T16:30:09.174Z,9.40
2023-04-08T16:32:36.008Z,9.40
2023-04-08T16:35:02.854Z,9.40
2023-04-08T16:37:29.726Z,9.40
2023-04-08T16:39:56.934Z,9.50
2023-04-08T16:42:23.846Z,9.50
2023-04-08T16:44:56.325Z,9.50
2023-04-08T16:47:23.347Z,9.50
2023-04-08T16:49:51.823Z,9.50
2023-04-08T16:52:19.202Z,9.50
2023-04-08T16:54:46.325Z,9.50
2023-04-08T16:57:13.061Z,9.50
2023-04-08T16:59:39.732Z,9.60
2023-04-08T17:02:07.119Z,9.50
2023-04-08T17:04:33.899Z,9.50
2023-04-08T17:07:01.305Z,9.50
2023-04-08T17:09:28.425Z,9.50
2023-04-08T17:11:56.078Z,9.50
2023-04-08T17:14:22.917Z,9.50
2023-04-08T17:16:49.869Z,9.50
2023-04-08T17:19:18.078Z,9.40
2023-04-08T17:21:45.553Z,9.40
2023-04-08T17:24:12.351Z,9.40
2023-04-08T17:26:42.249Z,9.40
2023-04-08T17:29:10.058Z,9.30
2023-04-08T17:31:37.019Z,9.30
2023-04-08T17:34:03.765Z,9.30
2023-04-08T17:36:31.373Z,9.30
2023-04-08T17:38:58.159Z,9.20
2023-04-08T17:41:38.286Z,9.20
2023-04-08T17:44:06.868Z,9.20
2023-04-08T17:46:33.666Z,9.20
2023-04-08T17:49:00.636Z,9.20
2023-04-08T17:51:28.884Z,9.20
2023-04-08T17:53:56.090Z,9.20
2023-04-08T17:56:23.587Z,9.20
2023-04-08T17:58:50.522Z,9.20
2023-04-08T18:01:17.388Z,9.20
2023-04-08T18:03:44.769Z,9.20
2023-04-08T18:06:11.731Z,9.20
2023-04-08T18:08:38.482Z,9.10
2023-04-08T18:11:05.907Z,9.10
2023-04-08T18:13:33.018Z,9.10
2023-04-08T18:15:59.949Z,9.10
2023-04-08T18:18:26.723Z,9.10
2023-04-08T18:20:53.518Z,9.10
2023-04-08T18:23:20.333Z,9.20
2023-04-08T18:25:47.643Z,9.20
2023-04-08T18:28:14.413Z,9.10
2023-04-08T18:30:43.214Z,9.10
2023-04-08T18:33:10.051Z,9.10
2023-04-08T18:35:37.050Z,9.00
2023-04-08T18:38:03.897Z,9.00
2023-04-08T18:40:31.433Z,9.00
2023-04-08T18:43:02.049Z,8.90
2023-04-08T18:45:29.585Z,8.90
2023-04-08T18:47:56.488Z,8.90
2023-04-08T18:50:23.594Z,8.90
2023-04-08T18:52:50.325Z,8.90
2023-04-08T18:55:17.195Z,8.90
2023-04-08T18:57:44.735Z,8.90
2023-04-08T19:00:11.744Z,8.80
2023-04-08T19:02:38.730Z,8.80
2023-04-08T19:05:06.084Z,8.80
2023-04-08T19:07:32.936Z,8.80
2023-04-08T19:09:59.858Z,8.80
2023-04-08T19:12:26.919Z,8.80
2023-04-08T19:14:54.401Z,8.70
2023-04-08T19:17:21.283Z,8.80
2023-04-08T19:19:48.049Z,8.80
2023-04-08T19:22:14.736Z,8.70
2023-04-08T19:24:42.081Z,8.70
2023-04-08T19:27:08.960Z,8.70
2023-04-08T19:29:35.939Z,8.70
2023-04-08T19:32:04.181Z,8.60
2023-04-08T19:34:31.089Z,8.60
2023-04-08T19:36:57.845Z,8.60
2023-04-08T19:39:26.702Z,8.70
2023-04-08T19:41:54.933Z,8.60
2023-04-08T19:44:21.772Z,8.70
2023-04-08T19:46:48.753Z,8.60
2023-04-08T19:49:15.646Z,8.60
2023-04-08T19:51:42.371Z,8.60
2023-04-08T19:54:09.456Z,8.60
2023-04-08T19:56:37.085Z,8.60
2023-04-08T19:59:04.086Z,8.60
2023-04-08T20:01:30.964Z,8.50
2023-04-08T20:03:57.915Z,8.50
2023-04-08T20:06:24.689Z,8.50
2023-04-08T20:08:53.032Z,8.50
2023-04-08T20:11:20.877Z,8.50
2023-04-08T20:13:49.392Z,8.50
2023-04-08T20:16:16.645Z,8.50
2023-04-08T20:18:43.478Z,8.50
2023-04-08T20:21:13.884Z,8.50
2023-04-08T20:23:44.336Z,8.50
2023-04-08T20:26:12.644Z,8.50
2023-04-08T20:28:40.001Z,8.40
2023-04-08T20:31:09.657Z,8.40
2023-04-08T20:33:43.457Z,8.40
2023-04-08T20:36:13.515Z,8.40
2023-04-08T20:38:40.825Z,8.30
2023-04-08T20:41:07.681Z,8.20
2023-04-08T20:43:34.499Z,8.20
2023-04-08T20:46:01.222Z,8.10
2023-04-08T20:48:29.451Z,8.10
2023-04-08T20:50:57.449Z,8.00
2023-04-08T20:53:24.607Z,7.90
2023-04-08T20:55:51.916Z,7.90
2023-04-08T20:58:18.727Z,7.90
2023-04-08T21:00:47.578Z,7.80
2023-04-08T21:03:14.768Z,7.80
2023-04-08T21:05:41.911Z,7.80
2023-04-08T21:08:09.369Z,7.70
2023-04-08T21:10:36.161Z,7.70
2023-04-08T21:13:02.894Z,7.60
2023-04-08T21:15:29.721Z,7.60
2023-04-08T21:17:56.687Z,7.60
2023-04-08T21:20:23.562Z,7.60
2023-04-08T21:22:50.640Z,7.60
2023-04-08T21:25:18.261Z,7.60
2023-04-08T21:27:45.503Z,7.60
2023-04-08T21:30:12.444Z,7.50
2023-04-08T21:32:39.269Z,7.50
2023-04-08T21:35:06.300Z,7.50
2023-04-08T21:37:34.588Z,7.60
2023-04-08T21:40:01.505Z,7.50
2023-04-08T21:42:28.997Z,7.60
2023-04-08T21:44:55.809Z,7.50
2023-04-08T21:47:22.670Z,7.50
2023-04-08T21:49:50.060Z,7.50
2023-04-08T21:52:17.827Z,7.50
2023-04-08T21:54:47.841Z,7.50
2023-04-08T21:57:14.574Z,7.40
2023-04-08T21:59:41.303Z,7.40
2023-04-08T22:02:09.412Z,7.40
2023-04-08T22:04:37.958Z,7.50
2023-04-08T22:07:04.710Z,7.40
2023-04-08T22:09:31.547Z,7.40
2023-04-08T22:11:58.358Z,7.40
2023-04-08T22:14:25.216Z,7.40
2023-04-08T22:16:52.142Z,7.40
2023-04-08T22:19:19.159Z,7.30
2023-04-08T22:21:46.386Z,7.30
2023-04-08T22:24:13.087Z,7.30
2023-04-08T22:26:39.885Z,7.40
2023-04-08T22:29:06.595Z,7.40
2023-04-08T22:31:33.342Z,7.40
2023-04-08T22:34:00.104Z,7.40
2023-04-08T22:36:27.230Z,7.40
2023-04-08T22:38:54.159Z,7.40
2023-04-08T22:41:22.784Z,7.40
2023-04-08T22:43:50.286Z,7.40
2023-04-08T22:46:18.506Z,7.40
2023-04-08T22:48:45.993Z,7.40
2023-04-08T22:51:13.493Z,7.40
2023-04-08T22:53:40.611Z,7.40
2023-04-08T22:56:07.463Z,7.40
2023-04-08T22:58:34.379Z,7.40
2023-04-08T23:01:02.465Z,7.30
2023-04-08T23:03:29.294Z,7.40
2023-04-08T23:05:56.244Z,7.40
2023-04-08T23:08:23.202Z,7.40
2023-04-08T23:10:50.100Z,7.30
2023-04-08T23:13:16.833Z,7.30
2023-04-08T23:15:43.641Z,7.40
2023-04-08T23:18:10.419Z,7.30
2023-04-08T23:20:37.176Z,7.40
2023-04-08T23:23:03.933Z,7.40
2023-04-08T23:25:30.817Z,7.40
2023-04-08T23:27:57.584Z,7.40
2023-04-08T23:30:24.297Z,7.40
2023-04-08T23:32:51.086Z,7.30
2023-04-08T23:35:18.067Z,7.30
2023-04-08T23:37:44.844Z,7.30
2023-04-08T23:40:11.880Z,7.30
2023-04-08T23:42:38.637Z,7.30
2023-04-08T23:45:06.100Z,7.30
2023-04-08T23:47:32.904Z,7.30
2023-04-08T23:49:59.841Z,7.40
2023-04-08T23:52:26.644Z,7.30
2023-04-08T23:54:53.592Z,7.40
2023-04-08T23:57:20.427Z,7.30
2023-04-08T23:59:47.663Z,7.40
